createdAt,value
2023-04-16T00:01:08.153Z,13.90
2023-04-16T00:03:56.010Z,13.50
2023-04-16T00:06:43.532Z,14.73
2023-04-16T00:09:30.953Z,14.13
2023-04-16T00:12:18.319Z,14.70
2023-04-16T00:15:06.022Z,14.50
2023-04-16T00:17:53.409Z,14.27
2023-04-16T00:20:40.805Z,13.30
2023-04-16T00:23:28.181Z,13.37
2023-04-16T00:26:16.057Z,13.57
2023-04-16T00:29:03.410Z,13.30
2023-04-16T00:31:51.273Z,12.57
2023-04-16T00:34:38.638Z,12.83
2023-04-16T00:37:25.989Z,12.87
2023-04-16T00:40:13.339Z,13.20
2023-04-16T00:43:00.707Z,12.47
2023-04-16T00:45:48.121Z,12.30
2023-04-16T00:48:39.244Z,11.97
2023-04-16T00:51:27.056Z,12.90
2023-04-16T00:54:14.431Z,12.20
2023-04-16T00:57:02.236Z,12.07
2023-04-16T00:59:49.605Z,12.30
2023-04-16T01:02:37.342Z,13.23
2023-04-16T01:05:24.773Z,12.57
2023-04-16T01:08:22.043Z,13.00
2023-04-16T01:11:10.751Z,11.63
2023-04-16T01:13:58.119Z,12.23
2023-04-16T01:16:45.584Z,12.20
2023-04-16T01:19:36.107Z,11.97
2023-04-16T01:22:23.502Z,12.67
2023-04-16T01:25:14.482Z,12.53
2023-04-16T01:28:01.811Z,12.27
2023-04-16T01:30:49.227Z,12.87
2023-04-16T01:33:36.584Z,12.60
2023-04-16T01:36:23.908Z,12.00
2023-04-16T01:39:14.127Z,12.83
2023-04-16T01:42:02.286Z,11.97
2023-04-16T01:44:49.714Z,12.93
2023-04-16T01:47:37.199Z,12.80
2023-04-16T01:50:24.604Z,12.77
2023-04-16T01:53:11.942Z,12.60
2023-04-16T01:55:59.354Z,13.10
2023-04-16T01:58:47.252Z,11.97
2023-04-16T02:01:34.663Z,12.43
2023-04-16T02:04:22.018Z,13.33
2023-04-16T02:07:09.654Z,12.10
2023-04-16T02:09:57.928Z,12.77
2023-04-16T02:12:45.390Z,13.03
2023-04-16T02:15:32.787Z,12.63
2023-04-16T02:18:20.178Z,13.70
2023-04-16T02:21:07.764Z,13.00
2023-04-16T02:23:55.266Z,12.33
2023-04-16T02:26:42.659Z,11.63
2023-04-16T02:29:30.242Z,12.73
2023-04-16T02:32:18.209Z,13.47
2023-04-16T02:35:05.786Z,12.20
2023-04-16T02:37:53.142Z,12.20
2023-04-16T02:40:40.567Z,12.53
2023-04-16T02:43:28.044Z,12.47
2023-04-16T02:46:15.400Z,13.07
2023-04-16T02:49:02.766Z,13.47
2023-04-16T02:51:50.264Z,13.93
2023-04-16T02:54:37.684Z,12.77
2023-04-16T02:57:25.010Z,12.20
2023-04-16T03:00:12.857Z,12.67
2023-04-16T03:03:00.317Z,13.20
2023-04-16T03:05:47.971Z,12.57
2023-04-16T03:08:35.378Z,11.03
2023-04-16T03:11:22.717Z,12.80
2023-04-16T03:14:10.390Z,11.93
2023-04-16T03:16:57.989Z,12.00
2023-04-16T03:19:45.380Z,12.90
2023-04-16T03:22:32.727Z,12.17
2023-04-16T03:25:20.302Z,12.70
2023-04-16T03:28:07.650Z,12.73
2023-04-16T03:30:55.146Z,13.30
2023-04-16T03:33:42.576Z,13.07
2023-04-16T03:36:30.055Z,12.83
2023-04-16T03:39:17.392Z,12.20
2023-04-16T03:42:04.764Z,12.30
2023-04-16T03:44:53.564Z,12.70
2023-04-16T03:47:40.963Z,12.37
2023-04-16T03:50:28.376Z,12.87
2023-04-16T03:53:16.020Z,12.73
2023-04-16T03:56:03.400Z,12.50
2023-04-16T03:58:50.714Z,12.90
2023-04-16T04:01:38.090Z,13.30
2023-04-16T04:04:25.672Z,13.17
2023-04-16T04:07:13.110Z,13.63
2023-04-16T04:10:00.552Z,13.50
2023-04-16T04:12:47.910Z,13.23
2023-04-16T04:15:35.351Z,12.40
2023-04-16T04:18:22.781Z,13.03
2023-04-16T04:21:10.425Z,14.60
2023-04-16T04:23:57.789Z,14.23
2023-04-16T04:26:45.255Z,12.97
2023-04-16T04:29:32.643Z,13.80
2023-04-16T04:32:20.085Z,14.40
2023-04-16T04:35:07.689Z,14.03
2023-04-16T04:37:55.061Z,12.97
2023-04-16T04:40:42.430Z,13.70
2023-04-16T04:43:29.777Z,12.47
2023-04-16T04:46:17.191Z,13.67
2023-04-16T04:49:04.717Z,13.87
2023-04-16T04:51:52.157Z,13.77
2023-04-16T04:54:41.537Z,13.03
2023-04-16T04:57:28.907Z,14.03
2023-04-16T05:00:16.479Z,15.30
2023-04-16T05:03:05.782Z,14.80
2023-04-16T05:05:53.295Z,14.17
2023-04-16T05:08:40.688Z,14.50
2023-04-16T05:11:28.064Z,14.87
2023-04-16T05:14:15.417Z,16.47
2023-04-16T05:17:02.908Z,14.40
2023-04-16T05:19:50.377Z,15.67
2023-04-16T05:22:37.757Z,15.27
2023-04-16T05:25:25.307Z,14.53
2023-04-16T05:28:12.722Z,14.43
2023-04-16T05:31:00.284Z,13.93
2023-04-16T05:33:47.726Z,14.37
2023-04-16T05:36:35.182Z,14.13
2023-04-16T05:39:22.558Z,14.53
2023-04-16T05:42:09.924Z,13.47
2023-04-16T05:44:57.268Z,14.27
2023-04-16T05:47:44.765Z,13.83
2023-04-16T05:50:32.112Z,13.33
2023-04-16T05:53:19.530Z,13.17
2023-04-16T05:56:07.099Z,13.77
2023-04-16T05:58:54.457Z,14.23
2023-04-16T06:01:41.803Z,13.87
2023-04-16T06:04:30.926Z,13.70
2023-04-16T06:07:18.353Z,14.23
2023-04-16T06:10:06.051Z,14.13
2023-04-16T06:12:53.413Z,13.53
2023-04-16T06:15:40.802Z,13.80
2023-04-16T06:18:28.237Z,13.67
2023-04-16T06:21:15.708Z,12.87
2023-04-16T06:24:03.088Z,12.40
2023-04-16T06:26:50.465Z,13.43
2023-04-16T06:29:41.408Z,13.93
2023-04-16T06:32:29.336Z,13.57
2023-04-16T06:35:16.851Z,14.37
2023-04-16T06:38:04.243Z,13.73
2023-04-16T06:40:51.708Z,13.37
2023-04-16T06:43:39.090Z,12.83
2023-04-16T06:46:26.475Z,14.30
2023-04-16T06:49:13.873Z,14.33
2023-04-16T06:52:01.763Z,12.83
2023-04-16T06:54:50.275Z,14.03
2023-04-16T06:57:37.826Z,13.67
2023-04-16T07:00:25.409Z,13.20
2023-04-16T07:03:13.021Z,13.50
2023-04-16T07:06:00.549Z,14.40
2023-04-16T07:08:47.905Z,13.33
2023-04-16T07:11:35.541Z,14.43
2023-04-16T07:14:22.929Z,12.83
2023-04-16T07:17:10.396Z,14.47
2023-04-16T07:19:57.779Z,14.77
2023-04-16T07:22:45.262Z,13.57
2023-04-16T07:25:32.627Z,14.50
2023-04-16T07:28:20.228Z,13.53
2023-04-16T07:31:07.682Z,13.43
2023-04-16T07:33:55.052Z,12.77
2023-04-16T07:36:42.414Z,13.97
2023-04-16T07:39:29.760Z,13.80
2023-04-16T07:42:17.157Z,12.60
2023-04-16T07:45:04.710Z,12.90
2023-04-16T07:47:52.127Z,12.50
2023-04-16T07:50:39.535Z,12.80
2023-04-16T07:53:26.875Z,13.10
2023-04-16T07:56:14.231Z,13.40
2023-04-16T07:59:11.097Z,12.57
2023-04-16T08:02:07.227Z,13.17
2023-04-16T08:04:54.781Z,12.27
2023-04-16T08:07:42.250Z,12.93
2023-04-16T08:10:29.600Z,12.40
2023-04-16T08:13:16.999Z,13.00
2023-04-16T08:16:04.509Z,12.70
2023-04-16T08:18:51.865Z,13.70
2023-04-16T08:21:39.553Z,13.10
2023-04-16T08:24:26.937Z,13.03
2023-04-16T08:27:18.608Z,12.33
2023-04-16T08:30:07.267Z,13.27
2023-04-16T08:32:54.807Z,13.63
2023-04-16T08:35:42.233Z,13.80
2023-04-16T08:38:29.601Z,13.57
2023-04-16T08:41:17.065Z,13.27
2023-04-16T08:44:08.266Z,13.70
2023-04-16T08:46:59.202Z,14.60
2023-04-16T08:49:46.721Z,14.37
2023-04-16T08:52:35.381Z,14.43
2023-04-16T08:55:23.702Z,14.30
2023-04-16T08:58:14.770Z,13.63
2023-04-16T09:01:04.228Z,12.17
2023-04-16T09:03:51.931Z,13.10
2023-04-16T09:06:39.499Z,13.93
2023-04-16T09:09:27.547Z,13.90
2023-04-16T09:12:15.040Z,12.57
2023-04-16T09:15:03.593Z,12.87
2023-04-16T09:17:51.025Z,13.37
2023-04-16T09:20:38.978Z,12.77
2023-04-16T09:23:26.351Z,12.20
2023-04-16T09:26:13.773Z,10.80
2023-04-16T09:29:01.710Z,9.70
2023-04-16T09:32:02.807Z,8.83
2023-04-16T09:35:00.620Z,9.73
2023-04-16T09:37:57.999Z,9.30
2023-04-16T09:40:47.253Z,10.23
2023-04-16T09:43:35.536Z,10.80
2023-04-16T09:46:23.075Z,9.87
2023-04-16T09:49:19.614Z,10.87
2023-04-16T09:52:10.066Z,10.93
2023-04-16T09:54:57.400Z,11.30
2023-04-16T09:57:44.760Z,11.37
2023-04-16T10:00:32.129Z,10.37
2023-04-16T10:03:19.658Z,12.17
2023-04-16T10:06:18.467Z,12.10
2023-04-16T10:09:08.488Z,12.30
2023-04-16T10:11:56.408Z,12.57
2023-04-16T10:14:44.004Z,12.83
2023-04-16T10:17:31.965Z,14.33
2023-04-16T10:20:19.505Z,13.63
2023-04-16T10:23:07.088Z,14.23
2023-04-16T10:25:57.502Z,14.50
2023-04-16T10:28:45.837Z,14.30
2023-04-16T10:31:33.364Z,14.53
2023-04-16T10:34:21.345Z,14.40
2023-04-16T10:37:08.693Z,12.97
2023-04-16T10:39:56.106Z,13.17
2023-04-16T10:42:53.953Z,13.43
2023-04-16T10:45:41.400Z,14.60
2023-04-16T10:48:42.091Z,13.17
2023-04-16T10:51:37.079Z,13.00
2023-04-16T10:54:26.360Z,13.60
2023-04-16T10:57:17.716Z,12.83
2023-04-16T11:00:22.064Z,12.73
2023-04-16T11:03:09.631Z,12.80
2023-04-16T11:06:10.523Z,12.70
2023-04-16T11:08:57.899Z,12.57
2023-04-16T11:11:45.488Z,11.80
2023-04-16T11:14:32.847Z,12.50
2023-04-16T11:17:20.981Z,12.43
2023-04-16T11:20:19.001Z,12.20
2023-04-16T11:23:13.137Z,12.43
2023-04-16T11:26:00.981Z,12.00
2023-04-16T11:28:48.309Z,12.47
2023-04-16T11:31:35.737Z,13.10
2023-04-16T11:34:23.150Z,12.80
2023-04-16T11:37:10.877Z,11.27
2023-04-16T11:39:58.222Z,11.63
2023-04-16T11:42:45.770Z,11.67
2023-04-16T11:45:33.217Z,11.20
2023-04-16T11:48:21.113Z,11.87
2023-04-16T11:51:08.579Z,12.03
2023-04-16T11:53:56.193Z,10.73
2023-04-16T11:56:46.776Z,11.33
2023-04-16T11:59:34.223Z,11.90
2023-04-16T12:02:41.227Z,11.23
2023-04-16T12:05:32.674Z,11.00
2023-04-16T12:08:30.800Z,10.70
2023-04-16T12:11:18.385Z,10.80
2023-04-16T12:14:12.264Z,10.67
2023-04-16T12:17:21.758Z,10.37
2023-04-16T12:20:10.832Z,11.27
2023-04-16T12:23:02.065Z,10.50
2023-04-16T12:25:52.537Z,10.67
2023-04-16T12:28:40.233Z,10.80
2023-04-16T12:31:39.925Z,12.00
2023-04-16T12:34:48.080Z,10.60
2023-04-16T12:37:35.313Z,11.80
2023-04-16T12:40:22.671Z,11.37
2023-04-16T12:43:10.478Z,11.80
2023-04-16T12:45:57.857Z,11.80
2023-04-16T12:48:45.240Z,11.23
2023-04-16T12:51:33.257Z,11.43
2023-04-16T12:54:20.632Z,10.97
2023-04-16T12:57:07.942Z,10.67
2023-04-16T12:59:59.055Z,10.13
2023-04-16T13:02:46.707Z,11.00
2023-04-16T13:05:34.579Z,11.17
2023-04-16T13:08:21.934Z,11.13
2023-04-16T13:11:09.765Z,10.97
2023-04-16T13:13:57.196Z,10.50
2023-04-16T13:16:44.618Z,11.33
2023-04-16T13:19:32.222Z,11.37
2023-04-16T13:22:19.618Z,13.43
2023-04-16T13:25:07.291Z,12.80
2023-04-16T13:27:54.700Z,11.00
2023-04-16T13:30:42.113Z,11.13
2023-04-16T13:33:29.581Z,11.10
2023-04-16T13:36:17.012Z,11.27
2023-04-16T13:39:10.645Z,11.20
2023-04-16T13:41:58.235Z,10.43
2023-04-16T13:44:48.779Z,10.77
2023-04-16T13:47:36.728Z,10.67
2023-04-16T13:50:24.199Z,11.00
2023-04-16T13:53:11.749Z,11.03
2023-04-16T13:55:59.368Z,10.17
2023-04-16T13:58:46.757Z,11.43
2023-04-16T14:01:34.207Z,10.43
2023-04-16T14:04:22.379Z,10.73
2023-04-16T14:07:10.189Z,11.17
2023-04-16T14:09:57.532Z,10.60
2023-04-16T14:12:45.211Z,11.27
2023-04-16T14:15:32.576Z,11.90
2023-04-16T14:18:19.910Z,10.80
2023-04-16T14:21:07.267Z,11.23
2023-04-16T14:23:54.648Z,12.30
2023-04-16T14:26:43.550Z,12.20
2023-04-16T14:29:31.245Z,25.30
2023-04-16T14:32:18.633Z,12.10
2023-04-16T14:35:06.560Z,11.40
2023-04-16T14:37:53.960Z,11.33
2023-04-16T14:40:41.376Z,11.77
2023-04-16T14:43:28.846Z,11.97
2023-04-16T14:46:17.675Z,11.30
2023-04-16T14:49:05.474Z,11.87
2023-04-16T14:51:52.939Z,12.13
2023-04-16T14:54:40.373Z,11.30
2023-04-16T14:57:27.751Z,11.60
2023-04-16T15:00:17.508Z,11.63
2023-04-16T15:03:05.160Z,10.80
2023-04-16T15:05:56.032Z,11.33
2023-04-16T15:08:43.405Z,11.70
2023-04-16T15:11:30.773Z,12.10
2023-04-16T15:14:18.108Z,11.70
2023-04-16T15:17:05.608Z,11.03
2023-04-16T15:19:53.581Z,10.93
2023-04-16T15:22:41.236Z,11.70
2023-04-16T15:25:29.020Z,11.37
2023-04-16T15:28:16.489Z,11.23
2023-04-16T15:31:03.946Z,11.97
2023-04-16T15:33:51.494Z,12.03
2023-04-16T15:36:38.959Z,10.70
2023-04-16T15:39:26.581Z,11.17
2023-04-16T15:42:13.937Z,11.20
2023-04-16T15:45:01.553Z,11.67
2023-04-16T15:47:51.289Z,11.37
2023-04-16T15:50:38.829Z,11.63
2023-04-16T15:53:26.464Z,12.00
2023-04-16T15:56:13.861Z,12.00
2023-04-16T15:59:01.372Z,11.73
2023-04-16T16:01:48.857Z,11.83
2023-04-16T16:04:36.445Z,11.37
2023-04-16T16:07:25.140Z,11.53
2023-04-16T16:10:13.174Z,12.40
2023-04-16T16:13:05.342Z,12.17
2023-04-16T16:15:52.755Z,12.10
2023-04-16T16:18:40.579Z,11.23
2023-04-16T16:21:30.212Z,12.07
2023-04-16T16:24:18.249Z,11.90
2023-04-16T16:27:05.970Z,12.50
2023-04-16T16:29:53.349Z,11.07
2023-04-16T16:32:41.076Z,11.37
2023-04-16T16:35:28.571Z,12.10
2023-04-16T16:38:15.972Z,11.87
2023-04-16T16:41:03.329Z,11.50
2023-04-16T16:43:50.968Z,12.63
2023-04-16T16:46:38.396Z,11.70
2023-04-16T16:49:25.859Z,12.93
2023-04-16T16:52:13.297Z,12.43
2023-04-16T16:55:01.920Z,11.53
2023-04-16T16:57:49.503Z,11.87
2023-04-16T17:00:37.225Z,11.20
2023-04-16T17:03:24.736Z,11.13
2023-04-16T17:06:12.384Z,11.23
2023-04-16T17:08:59.767Z,11.50
2023-04-16T17:11:47.132Z,10.83
2023-04-16T17:14:35.206Z,11.53
2023-04-16T17:17:22.677Z,10.70
2023-04-16T17:20:12.134Z,10.53
2023-04-16T17:22:59.534Z,11.10
2023-04-16T17:25:46.908Z,10.87
2023-04-16T17:28:34.248Z,9.87
2023-04-16T17:31:21.874Z,11.03
2023-04-16T17:34:09.496Z,10.33
2023-04-16T17:36:57.070Z,10.73
2023-04-16T17:39:44.410Z,10.47
2023-04-16T17:42:31.727Z,10.03
2023-04-16T17:45:19.175Z,10.83
2023-04-16T17:48:06.750Z,10.50
2023-04-16T17:50:54.247Z,10.17
2023-04-16T17:53:42.634Z,10.23
2023-04-16T17:56:30.129Z,10.03
2023-04-16T17:59:17.609Z,9.87
2023-04-16T18:02:05.102Z,10.70
2023-04-16T18:04:52.714Z,10.63
2023-04-16T18:07:40.308Z,10.87
2023-04-16T18:10:31.379Z,10.53
2023-04-16T18:13:19.088Z,10.40
2023-04-16T18:16:07.542Z,9.67
2023-04-16T18:18:55.029Z,10.03
2023-04-16T18:21:42.672Z,9.30
2023-04-16T18:24:30.080Z,10.53
2023-04-16T18:27:17.420Z,10.00
2023-04-16T18:30:05.235Z,9.30
2023-04-16T18:33:11.451Z,9.87
2023-04-16T18:36:03.642Z,9.90
2023-04-16T18:39:00.955Z,9.83
2023-04-16T18:41:49.736Z,10.23
2023-04-16T18:44:37.111Z,10.07
2023-04-16T18:47:24.698Z,9.87
2023-04-16T18:50:12.041Z,9.60
2023-04-16T18:52:59.657Z,9.97
2023-04-16T18:55:47.209Z,10.20
2023-04-16T18:58:34.644Z,9.67
2023-04-16T19:01:22.072Z,10.03
2023-04-16T19:04:09.655Z,11.23
2023-04-16T19:06:57.009Z,11.40
2023-04-16T19:09:44.368Z,10.57
2023-04-16T19:12:31.984Z,10.73
2023-04-16T19:15:19.403Z,11.07
2023-04-16T19:18:06.762Z,11.27
2023-04-16T19:21:00.682Z,10.57
2023-04-16T19:23:48.900Z,10.57
2023-04-16T19:26:36.296Z,10.80
2023-04-16T19:29:23.778Z,11.10
2023-04-16T19:32:12.319Z,10.87
2023-04-16T19:35:02.460Z,11.10
2023-04-16T19:37:50.455Z,10.87
2023-04-16T19:40:38.258Z,10.83
2023-04-16T19:43:25.732Z,11.27
2023-04-16T19:46:14.050Z,10.47
2023-04-16T19:49:01.426Z,11.63
2023-04-16T19:51:48.828Z,12.03
2023-04-16T19:54:37.180Z,11.43
2023-04-16T19:57:24.551Z,10.73
2023-04-16T20:00:12.290Z,12.10
2023-04-16T20:02:59.749Z,11.53
2023-04-16T20:05:49.565Z,11.57
2023-04-16T20:08:36.989Z,11.00
2023-04-16T20:11:24.406Z,12.03
2023-04-16T20:14:11.995Z,12.40
2023-04-16T20:16:59.473Z,12.73
2023-04-16T20:19:50.994Z,11.90
2023-04-16T20:22:41.531Z,12.53
2023-04-16T20:25:29.252Z,12.13
2023-04-16T20:28:18.028Z,11.80
2023-04-16T20:31:05.393Z,12.23
2023-04-16T20:33:52.765Z,12.80
2023-04-16T20:36:40.341Z,12.20
2023-04-16T20:39:27.777Z,13.03
2023-04-16T20:42:15.130Z,13.30
2023-04-16T20:45:02.497Z,11.37
2023-04-16T20:47:49.908Z,12.67
2023-04-16T20:50:37.323Z,12.27
2023-04-16T20:53:24.686Z,11.70
2023-04-16T20:56:14.652Z,11.70
2023-04-16T20:59:02.868Z,11.97
2023-04-16T21:01:50.374Z,10.80
2023-04-16T21:04:37.904Z,12.27
2023-04-16T21:07:25.406Z,12.00
2023-04-16T21:10:17.309Z,12.53
2023-04-16T21:13:04.662Z,11.53
2023-04-16T21:15:52.134Z,11.20
2023-04-16T21:18:39.458Z,12.43
2023-04-16T21:21:27.453Z,10.97
2023-04-16T21:24:14.789Z,10.43
2023-04-16T21:27:02.264Z,11.70
2023-04-16T21:29:50.133Z,11.00
2023-04-16T21:32:37.575Z,10.53
2023-04-16T21:35:24.988Z,10.00
2023-04-16T21:38:12.359Z,9.80
2023-04-16T21:40:59.706Z,9.73
2023-04-16T21:43:47.020Z,9.90
2023-04-16T21:46:34.413Z,11.03
2023-04-16T21:49:21.804Z,10.63
2023-04-16T21:52:14.165Z,11.73
2023-04-16T21:55:02.362Z,11.80
2023-04-16T21:57:49.760Z,12.17
2023-04-16T22:00:37.141Z,11.67
2023-04-16T22:03:30.141Z,12.60
2023-04-16T22:06:18.117Z,11.83
2023-04-16T22:09:05.527Z,12.20
2023-04-16T22:11:52.947Z,12.37
2023-04-16T22:14:46.259Z,13.57
2023-04-16T22:17:37.070Z,14.23
2023-04-16T22:20:24.748Z,13.77
2023-04-16T22:23:12.082Z,13.80
2023-04-16T22:25:59.446Z,15.20
2023-04-16T22:28:47.226Z,14.83
2023-04-16T22:31:34.652Z,15.63
2023-04-16T22:34:22.058Z,13.83
2023-04-16T22:37:09.391Z,13.37
2023-04-16T22:39:56.749Z,13.07
2023-04-16T22:42:44.130Z,14.97
2023-04-16T22:45:31.592Z,14.37
2023-04-16T22:48:18.904Z,14.97
2023-04-16T22:51:07.858Z,14.00
2023-04-16T22:53:55.302Z,14.60
2023-04-16T22:56:42.742Z,15.13
2023-04-16T22:59:30.936Z,15.87
2023-04-16T23:02:18.734Z,14.57
2023-04-16T23:05:06.401Z,13.83
2023-04-16T23:07:53.773Z,14.90
2023-04-16T23:10:41.112Z,15.10
2023-04-16T23:13:28.427Z,15.27
2023-04-16T23:16:15.948Z,14.77
2023-04-16T23:19:03.326Z,14.83
2023-04-16T23:21:50.947Z,16.13
2023-04-16T23:24:38.338Z,14.20
2023-04-16T23:27:26.168Z,15.17
2023-04-16T23:30:13.675Z,14.33
2023-04-16T23:33:01.152Z,14.43
2023-04-16T23:35:48.532Z,15.33
2023-04-16T23:38:35.884Z,15.67
2023-04-16T23:41:23.615Z,15.83
2023-04-16T23:44:10.970Z,14.70
2023-04-16T23:46:58.432Z,14.80
2023-04-16T23:49:45.805Z,15.47
2023-04-16T23:52:33.132Z,15.50
2023-04-16T23:55:20.635Z,15.83
2023-04-16T23:58:07.977Z,16.37
